createdAt,value
2023-05-20T00:00:01.348Z,85.3
2023-05-20T00:05:06.623Z,90.4
2023-05-20T00:10:02.387Z,97.2
2023-05-20T00:15:01.501Z,103.0
2023-05-20T00:20:01.500Z,109.0
2023-05-20T00:30:01.468Z,109.9
2023-05-20T00:35:01.445Z,106.0
2023-05-20T00:40:01.491Z,102.5
2023-05-20T00:45:01.425Z,96.2
2023-05-20T00:50:01.408Z,93.8
2023-05-20T00:55:01.454Z,87.9
2023-05-20T01:00:01.369Z,87.8
2023-05-20T01:05:01.415Z,86.9
2023-05-20T01:10:01.490Z,87.4
2023-05-20T01:15:02.396Z,82.2
2023-05-20T01:20:01.704Z,79.5
2023-05-20T01:25:01.489Z,79.6
2023-05-20T01:30:01.416Z,78.7
2023-05-20T01:35:01.450Z,77.9
2023-05-20T01:40:01.429Z,76.6
2023-05-20T01:45:02.518Z,76.8
2023-05-20T01:50:01.351Z,77.0
2023-05-20T01:55:02.586Z,75.5
2023-05-20T02:00:01.341Z,75.8
2023-05-20T02:05:01.484Z,76.8
2023-05-20T02:10:01.360Z,79.6
2023-05-20T02:15:01.604Z,81.1
2023-05-20T02:20:01.429Z,82.9
2023-05-20T02:35:01.477Z,84.2
2023-05-20T02:40:01.458Z,83.1
2023-05-20T02:45:02.476Z,96.7
2023-05-20T02:50:01.326Z,95.8
2023-05-20T02:55:01.535Z,94.6
2023-05-20T03:05:02.433Z,97.4
2023-05-20T03:10:01.423Z,101.0
2023-05-20T03:15:02.437Z,95.9
2023-05-20T03:20:01.432Z,104.3
2023-05-20T03:25:01.453Z,113.2
2023-05-20T03:30:01.253Z,109.2
2023-05-20T03:35:01.414Z,113.4
2023-05-20T03:40:01.356Z,114.2
2023-05-20T03:45:06.380Z,112.8
2023-05-20T03:55:01.485Z,109.1
2023-05-20T04:00:01.314Z,115.2
2023-05-20T04:05:01.391Z,114.0
2023-05-20T04:10:01.331Z,107.4
2023-05-20T04:15:01.547Z,104.4
2023-05-20T04:20:01.343Z,100.9
2023-05-20T04:25:01.478Z,93.5
2023-05-20T04:30:01.363Z,91.1
2023-05-20T04:35:01.447Z,88.9
2023-05-20T04:40:01.368Z,89.8
2023-05-20T04:45:01.648Z,93.4
2023-05-20T04:50:01.418Z,95.2
2023-05-20T04:55:01.501Z,94.4
2023-05-20T05:05:01.561Z,94.1
2023-05-20T05:10:01.510Z,89.8
2023-05-20T05:15:02.427Z,84.6
2023-05-20T05:20:01.397Z,83.0
2023-05-20T05:25:01.498Z,79.6
2023-05-20T05:30:01.375Z,77.2
2023-05-20T05:40:01.409Z,76.3
2023-05-20T05:45:01.411Z,78.0
2023-05-20T05:50:01.341Z,77.6
2023-05-20T05:55:01.486Z,76.1
2023-05-20T06:00:01.494Z,75.1
2023-05-20T06:05:01.468Z,74.6
2023-05-20T06:10:02.380Z,76.4
2023-05-20T06:15:01.426Z,74.4
2023-05-20T06:20:01.467Z,74.9
2023-05-20T06:25:01.490Z,75.8
2023-05-20T06:35:06.568Z,75.6
2023-05-20T06:40:01.433Z,70.9
2023-05-20T06:45:01.431Z,72.8
2023-05-20T06:50:01.359Z,71.6
2023-05-20T06:55:01.445Z,73.8
2023-05-20T07:00:01.385Z,73.4
2023-05-20T07:05:01.409Z,74.5
2023-05-20T07:10:01.503Z,74.1
2023-05-20T07:20:02.617Z,74.6
2023-05-20T07:25:02.527Z,71.1
2023-05-20T07:30:01.536Z,70.5
2023-05-20T07:35:01.412Z,69.4
2023-05-20T07:40:02.406Z,68.8
2023-05-20T07:45:01.558Z,68.3
2023-05-20T07:50:01.415Z,67.7
2023-05-20T08:00:01.568Z,67.2
2023-05-20T08:05:01.426Z,65.5
2023-05-20T08:10:01.502Z,67.2
2023-05-20T08:15:01.430Z,72.6
2023-05-20T08:20:01.345Z,81.6
2023-05-20T08:25:01.571Z,92.1
2023-05-20T08:30:01.411Z,96.1
2023-05-20T08:35:01.405Z,99.1
2023-05-20T08:40:06.380Z,100.4
2023-05-20T08:45:01.423Z,100.5
2023-05-20T08:50:01.319Z,96.0
2023-05-20T08:55:06.519Z,97.8
2023-05-20T09:00:01.375Z,98.2
2023-05-20T09:05:01.657Z,99.6
2023-05-20T09:15:01.356Z,94.2
2023-05-20T09:20:01.391Z,96.0
2023-05-20T09:25:01.542Z,98.5
2023-05-20T09:30:01.361Z,100.8
2023-05-20T09:35:01.475Z,100.6
2023-05-20T09:40:01.368Z,105.1
2023-05-20T09:50:01.433Z,110.8
2023-05-20T09:55:01.500Z,115.5
2023-05-20T10:00:01.379Z,121.4
2023-05-20T10:05:01.417Z,127.3
2023-05-20T10:10:01.387Z,127.2
2023-05-20T10:15:06.503Z,122.8
2023-05-20T10:30:01.554Z,96.2
2023-05-20T10:35:01.629Z,95.7
2023-05-20T10:40:01.498Z,98.2
2023-05-20T10:45:01.564Z,100.0
2023-05-20T10:50:01.461Z,100.0
2023-05-20T10:55:01.625Z,100.7
2023-05-20T11:00:02.767Z,102.6
2023-05-20T11:05:01.519Z,105.0
2023-05-20T11:10:01.455Z,104.4
2023-05-20T11:15:06.556Z,104.1
2023-05-20T11:25:01.568Z,106.1
2023-05-20T11:30:01.415Z,110.4
2023-05-20T11:35:01.688Z,112.0
2023-05-20T11:40:01.616Z,115.1
2023-05-20T11:45:01.874Z,114.2
2023-05-20T11:50:01.555Z,111.2
2023-05-20T11:55:01.728Z,100.6
2023-05-20T12:20:06.630Z,94.8
2023-05-20T12:25:02.620Z,97.3
2023-05-20T12:30:01.500Z,98.6
2023-05-20T12:35:01.657Z,99.8
2023-05-20T12:40:02.604Z,95.1
2023-05-20T12:45:01.594Z,92.0
2023-05-20T12:50:01.502Z,88.1
2023-05-20T12:55:02.615Z,83.5
2023-05-20T13:00:01.536Z,78.8
2023-05-20T13:05:01.570Z,78.9
2023-05-20T13:10:01.508Z,78.5
2023-05-20T13:15:01.643Z,78.1
2023-05-20T13:20:01.519Z,78.9
2023-05-20T13:25:01.647Z,79.0
2023-05-20T13:30:01.405Z,78.8
2023-05-20T13:35:01.612Z,79.3
2023-05-20T13:40:01.520Z,79.2
2023-05-20T13:45:01.546Z,80.8
2023-05-20T13:50:03.554Z,80.4
2023-05-20T13:55:01.574Z,81.6
2023-05-20T14:00:01.584Z,84.2
2023-05-20T14:05:01.610Z,85.8
2023-05-20T14:10:01.435Z,86.1
2023-05-20T14:15:01.548Z,86.3
2023-05-20T14:20:01.503Z,86.7
2023-05-20T14:25:01.540Z,84.2
2023-05-20T14:30:01.362Z,83.0
2023-05-20T14:35:01.508Z,80.6
2023-05-20T14:40:01.588Z,80.6
2023-05-20T14:45:01.493Z,78.6
2023-05-20T14:50:01.413Z,77.3
2023-05-20T14:55:01.586Z,76.3
2023-05-20T15:00:01.455Z,75.6
2023-05-20T15:05:01.571Z,74.3
2023-05-20T15:10:01.420Z,75.4
2023-05-20T15:15:01.553Z,77.1
2023-05-20T15:20:01.438Z,77.8
2023-05-20T15:25:01.490Z,78.6
2023-05-20T15:30:01.528Z,80.3
2023-05-20T15:35:03.052Z,80.1
2023-05-20T15:40:01.457Z,79.7
2023-05-20T15:45:01.523Z,79.3
2023-05-20T15:50:01.444Z,78.3
2023-05-20T15:55:01.714Z,76.6
2023-05-20T16:00:01.563Z,76.2
2023-05-20T16:05:06.652Z,74.9
2023-05-20T16:10:01.642Z,73.0
2023-05-20T16:15:01.687Z,72.1
2023-05-20T16:20:01.650Z,72.3
2023-05-20T16:25:01.599Z,71.8
2023-05-20T16:30:01.506Z,72.3
2023-05-20T16:35:01.582Z,73.8
2023-05-20T16:40:01.351Z,74.6
2023-05-20T16:45:01.472Z,75.4
2023-05-20T16:50:06.378Z,77.5
2023-05-20T16:55:01.401Z,75.6
2023-05-20T17:00:01.365Z,73.3
2023-05-20T17:05:02.789Z,71.8
2023-05-20T17:10:01.471Z,70.3
2023-05-20T17:15:01.605Z,68.0
2023-05-20T17:25:01.485Z,69.7
2023-05-20T17:30:06.396Z,73.2
2023-05-20T17:35:02.643Z,76.5
2023-05-20T17:40:01.399Z,81.6
2023-05-20T17:45:01.490Z,87.6
2023-05-20T17:50:01.406Z,94.4
2023-05-20T18:00:06.426Z,101.3
2023-05-20T18:05:01.455Z,109.8
2023-05-20T18:10:01.728Z,112.3
2023-05-20T18:15:06.545Z,114.7
2023-05-20T18:20:01.348Z,116.6
2023-05-20T18:25:01.423Z,118.1
2023-05-20T18:30:01.370Z,115.6
2023-05-20T18:35:01.327Z,114.3
2023-05-20T18:45:06.481Z,106.3
2023-05-20T18:50:01.338Z,95.4
2023-05-20T18:55:01.396Z,82.8
2023-05-20T19:00:01.312Z,71.4
2023-05-20T19:05:01.494Z,62.2
2023-05-20T19:10:01.368Z,58.3
2023-05-20T19:15:01.521Z,56.6
2023-05-20T19:20:01.322Z,55.8
2023-05-20T19:25:01.475Z,55.6
2023-05-20T19:30:01.343Z,57.0
2023-05-20T19:35:01.457Z,57.9
2023-05-20T19:40:01.526Z,60.4
2023-05-20T19:45:01.494Z,63.5
2023-05-20T19:50:01.585Z,66.1
2023-05-20T19:55:01.454Z,66.9
2023-05-20T20:00:01.322Z,67.8
2023-05-20T20:05:01.653Z,66.6
2023-05-20T20:10:01.257Z,64.4
2023-05-20T20:15:01.321Z,65.0
2023-05-20T20:20:01.517Z,63.3
2023-05-20T20:25:01.476Z,61.9
2023-05-20T20:30:06.265Z,61.8
2023-05-20T20:35:01.451Z,61.8
2023-05-20T20:40:01.470Z,60.7
2023-05-20T20:45:01.370Z,60.5
2023-05-20T20:55:06.475Z,60.2
2023-05-20T21:00:01.429Z,59.0
2023-05-20T21:05:01.463Z,57.3
2023-05-20T21:15:01.406Z,57.4
2023-05-20T21:20:01.350Z,57.9
2023-05-20T21:25:01.493Z,58.8
2023-05-20T21:30:01.327Z,60.7
2023-05-20T21:35:01.617Z,62.6
2023-05-20T21:40:01.336Z,63.8
2023-05-20T21:45:06.520Z,64.3
2023-05-20T21:50:01.350Z,62.8
2023-05-20T21:55:01.413Z,61.6
2023-05-20T22:00:01.440Z,59.8
2023-05-20T22:05:06.478Z,58.8
2023-05-20T22:10:01.347Z,59.8
2023-05-20T22:15:06.451Z,60.8
2023-05-20T22:25:01.483Z,63.5
2023-05-20T22:30:01.325Z,65.8
2023-05-20T22:35:01.427Z,65.5
2023-05-20T22:40:01.283Z,63.8
2023-05-20T22:45:01.513Z,63.6
2023-05-20T22:50:06.414Z,61.4
2023-05-20T22:55:01.469Z,59.7
2023-05-20T23:00:01.317Z,61.2
2023-05-20T23:05:01.455Z,62.3
2023-05-20T23:10:01.355Z,64.0
2023-05-20T23:15:01.472Z,64.7
2023-05-20T23:20:01.418Z,65.0
2023-05-20T23:30:01.428Z,66.0
2023-05-20T23:35:01.392Z,66.0
2023-05-20T23:40:02.384Z,66.2
2023-05-20T23:45:01.470Z,66.1
2023-05-20T23:50:01.382Z,67.5
